createdAt,value
2023-01-29T00:01:13.988Z,2.10
2023-01-29T00:03:43.245Z,2.24
2023-01-29T00:06:13.002Z,2.19
2023-01-29T00:08:42.185Z,2.27
2023-01-29T00:11:11.749Z,2.40
2023-01-29T00:13:41.017Z,2.35
2023-01-29T00:16:10.948Z,2.36
2023-01-29T00:18:41.913Z,2.34
2023-01-29T00:21:11.779Z,2.03
2023-01-29T00:23:41.155Z,2.08
2023-01-29T00:26:10.855Z,2.19
2023-01-29T00:28:40.106Z,2.26
2023-01-29T00:31:10.375Z,2.31
2023-01-29T00:33:39.646Z,2.26
2023-01-29T00:36:11.803Z,2.36
2023-01-29T00:38:41.059Z,2.26
2023-01-29T00:41:27.983Z,2.45
2023-01-29T00:44:14.538Z,2.28
2023-01-29T00:46:44.111Z,2.16
2023-01-29T00:49:13.429Z,2.21
2023-01-29T00:51:44.460Z,2.45
2023-01-29T00:54:13.691Z,2.40
2023-01-29T00:56:43.196Z,2.51
2023-01-29T00:59:12.591Z,2.61
2023-01-29T01:01:55.808Z,2.54
2023-01-29T01:04:25.115Z,2.57
2023-01-29T01:06:56.111Z,2.65
2023-01-29T01:09:42.886Z,2.51
2023-01-29T01:12:12.406Z,2.54
2023-01-29T01:14:43.312Z,2.53
2023-01-29T01:17:12.853Z,2.59
2023-01-29T01:19:42.088Z,2.62
2023-01-29T01:22:13.130Z,2.66
2023-01-29T01:24:42.373Z,2.34
2023-01-29T01:27:11.924Z,2.39
2023-01-29T01:29:41.201Z,2.50
2023-01-29T01:32:10.838Z,2.60
2023-01-29T01:34:40.139Z,2.36
2023-01-29T01:37:09.690Z,2.40
2023-01-29T01:39:40.324Z,2.42
2023-01-29T01:42:12.758Z,2.38
2023-01-29T01:44:55.947Z,2.45
2023-01-29T01:47:26.679Z,2.39
2023-01-29T01:49:55.977Z,2.50
2023-01-29T01:52:25.556Z,2.29
2023-01-29T01:54:56.281Z,2.32
2023-01-29T01:57:26.398Z,2.30
2023-01-29T01:59:56.901Z,2.45
2023-01-29T02:02:43.736Z,2.37
2023-01-29T02:05:30.123Z,2.33
2023-01-29T02:08:16.931Z,2.33
2023-01-29T02:10:48.248Z,2.42
2023-01-29T02:13:18.028Z,2.51
2023-01-29T02:15:48.951Z,2.62
2023-01-29T02:18:18.948Z,2.70
2023-01-29T02:20:50.961Z,2.70
2023-01-29T02:23:38.340Z,2.62
2023-01-29T02:26:26.067Z,2.67
2023-01-29T02:28:57.794Z,2.64
2023-01-29T02:31:29.792Z,2.70
2023-01-29T02:34:02.494Z,2.58
2023-01-29T02:36:33.511Z,2.66
2023-01-29T02:39:03.660Z,2.72
2023-01-29T02:41:35.147Z,2.71
2023-01-29T02:44:07.033Z,2.55
2023-01-29T02:46:37.002Z,2.66
2023-01-29T02:49:08.565Z,2.63
2023-01-29T02:51:38.076Z,2.75
2023-01-29T02:54:08.683Z,2.81
2023-01-29T02:56:38.628Z,2.58
2023-01-29T02:59:10.518Z,2.60
2023-01-29T03:01:41.289Z,2.63
2023-01-29T03:04:12.112Z,2.55
2023-01-29T03:06:42.929Z,2.56
2023-01-29T03:09:13.341Z,2.54
2023-01-29T03:11:43.979Z,2.46
2023-01-29T03:14:16.970Z,2.61
2023-01-29T03:16:47.945Z,2.69
2023-01-29T03:19:18.123Z,2.78
2023-01-29T03:22:00.282Z,2.83
2023-01-29T03:24:50.030Z,2.84
2023-01-29T03:27:37.387Z,2.89
2023-01-29T03:30:26.489Z,2.84
2023-01-29T03:32:55.746Z,2.96
2023-01-29T03:35:35.481Z,2.91
2023-01-29T03:38:04.908Z,3.01
2023-01-29T03:40:36.119Z,2.99
2023-01-29T03:43:07.511Z,2.91
2023-01-29T03:45:42.951Z,2.95
2023-01-29T03:48:13.548Z,2.98
2023-01-29T03:50:45.148Z,2.95
2023-01-29T03:53:16.913Z,2.92
2023-01-29T03:55:48.220Z,2.92
2023-01-29T03:58:19.856Z,2.80
2023-01-29T04:00:53.344Z,2.73
2023-01-29T04:03:22.953Z,2.74
2023-01-29T04:05:52.955Z,2.85
2023-01-29T04:08:22.883Z,2.91
2023-01-29T04:10:52.466Z,2.89
2023-01-29T04:13:21.779Z,2.89
2023-01-29T04:15:54.929Z,2.87
2023-01-29T04:18:24.493Z,2.95
2023-01-29T04:20:54.182Z,2.88
2023-01-29T04:23:24.082Z,2.98
2023-01-29T04:26:00.533Z,2.96
2023-01-29T04:28:30.428Z,2.97
2023-01-29T04:31:02.124Z,2.90
2023-01-29T04:33:33.027Z,2.94
2023-01-29T04:36:10.344Z,3.00
2023-01-29T04:38:43.576Z,3.04
2023-01-29T04:41:13.586Z,3.03
2023-01-29T04:43:43.955Z,3.07
2023-01-29T04:46:17.602Z,2.98
2023-01-29T04:48:49.558Z,3.03
2023-01-29T04:51:20.075Z,3.03
2023-01-29T04:53:50.260Z,3.01
2023-01-29T04:56:20.708Z,3.05
2023-01-29T04:58:51.061Z,2.92
2023-01-29T05:01:22.609Z,2.97
2023-01-29T05:03:52.096Z,2.96
2023-01-29T05:06:21.679Z,3.04
2023-01-29T05:08:50.895Z,3.03
2023-01-29T05:11:20.621Z,3.10
2023-01-29T05:13:49.834Z,3.07
2023-01-29T05:16:20.799Z,3.07
2023-01-29T05:18:51.554Z,3.07
2023-01-29T05:21:21.227Z,3.01
2023-01-29T05:24:05.224Z,3.06
2023-01-29T05:26:52.332Z,3.08
2023-01-29T05:29:21.953Z,3.09
2023-01-29T05:31:51.585Z,3.09
2023-01-29T05:34:22.273Z,3.14
2023-01-29T05:36:51.951Z,3.15
2023-01-29T05:39:21.248Z,3.10
2023-01-29T05:41:50.835Z,3.16
2023-01-29T05:44:20.543Z,3.22
2023-01-29T05:46:51.357Z,3.24
2023-01-29T05:49:22.607Z,3.28
2023-01-29T05:51:52.206Z,3.28
2023-01-29T05:54:21.437Z,3.27
2023-01-29T05:56:50.921Z,3.33
2023-01-29T05:59:20.272Z,3.32
2023-01-29T06:01:49.846Z,3.31
2023-01-29T06:04:19.206Z,3.32
2023-01-29T06:06:50.275Z,3.36
2023-01-29T06:09:19.457Z,3.39
2023-01-29T06:11:48.993Z,3.37
2023-01-29T06:14:18.202Z,3.39
2023-01-29T06:16:47.835Z,3.41
2023-01-29T06:19:18.307Z,3.41
2023-01-29T06:21:49.439Z,3.46
2023-01-29T06:24:18.741Z,3.46
2023-01-29T06:26:48.515Z,3.51
2023-01-29T06:29:17.724Z,3.52
2023-01-29T06:31:47.341Z,3.55
2023-01-29T06:34:16.738Z,3.59
2023-01-29T06:36:46.329Z,3.59
2023-01-29T06:39:17.215Z,3.62
2023-01-29T06:41:46.787Z,3.67
2023-01-29T06:44:15.987Z,3.68
2023-01-29T06:46:45.531Z,3.69
2023-01-29T06:49:14.762Z,3.68
2023-01-29T06:51:44.371Z,3.68
2023-01-29T06:54:13.669Z,3.71
2023-01-29T06:56:44.772Z,3.73
2023-01-29T06:59:14.087Z,3.74
2023-01-29T07:01:44.550Z,3.76
2023-01-29T07:04:13.928Z,3.77
2023-01-29T07:06:43.520Z,3.79
2023-01-29T07:09:15.085Z,3.81
2023-01-29T07:11:46.158Z,3.81
2023-01-29T07:14:15.572Z,3.83
2023-01-29T07:16:45.148Z,3.83
2023-01-29T07:19:14.368Z,3.87
2023-01-29T07:21:43.922Z,3.90
2023-01-29T07:24:13.124Z,3.93
2023-01-29T07:26:42.688Z,3.95
2023-01-29T07:29:13.324Z,3.96
2023-01-29T07:31:43.029Z,3.97
2023-01-29T07:34:12.375Z,4.00
2023-01-29T07:36:42.167Z,4.01
2023-01-29T07:39:11.386Z,4.04
2023-01-29T07:41:40.990Z,4.07
2023-01-29T07:44:10.294Z,4.07
2023-01-29T07:46:41.354Z,4.06
2023-01-29T07:49:10.535Z,4.09
2023-01-29T07:51:40.070Z,4.10
2023-01-29T07:54:09.363Z,4.10
2023-01-29T07:56:39.005Z,4.12
2023-01-29T07:59:08.289Z,4.10
2023-01-29T08:01:37.904Z,4.11
2023-01-29T08:04:08.600Z,4.15
2023-01-29T08:06:38.297Z,4.15
2023-01-29T08:09:08.667Z,4.16
2023-01-29T08:11:38.267Z,4.17
2023-01-29T08:14:09.388Z,4.17
2023-01-29T08:16:39.172Z,4.18
2023-01-29T08:19:09.953Z,4.19
2023-01-29T08:21:39.515Z,4.23
2023-01-29T08:24:08.795Z,4.23
2023-01-29T08:26:38.398Z,4.27
2023-01-29T08:29:07.643Z,4.29
2023-01-29T08:31:37.269Z,4.31
2023-01-29T08:34:06.534Z,4.34
2023-01-29T08:36:37.858Z,4.36
2023-01-29T08:39:07.045Z,4.34
2023-01-29T08:41:36.651Z,4.40
2023-01-29T08:44:06.016Z,4.38
2023-01-29T08:46:35.675Z,4.43
2023-01-29T08:49:05.035Z,4.38
2023-01-29T08:51:34.685Z,4.32
2023-01-29T08:54:05.456Z,4.35
2023-01-29T08:56:34.998Z,4.37
2023-01-29T08:59:04.257Z,4.40
2023-01-29T09:01:33.836Z,4.59
2023-01-29T09:04:03.164Z,4.37
2023-01-29T09:06:32.788Z,4.57
2023-01-29T09:09:02.152Z,4.67
2023-01-29T09:11:33.154Z,4.72
2023-01-29T09:14:02.405Z,4.52
2023-01-29T09:16:32.005Z,4.72
2023-01-29T09:19:01.316Z,4.72
2023-01-29T09:21:30.918Z,4.73
2023-01-29T09:24:00.190Z,4.80
2023-01-29T09:26:29.927Z,4.70
2023-01-29T09:29:00.894Z,4.79
2023-01-29T09:31:30.606Z,4.86
2023-01-29T09:33:59.882Z,4.87
2023-01-29T09:36:29.485Z,4.87
2023-01-29T09:38:58.735Z,5.07
2023-01-29T09:41:31.701Z,5.08
2023-01-29T09:44:03.553Z,5.24
2023-01-29T09:46:35.287Z,5.15
2023-01-29T09:49:07.828Z,5.15
2023-01-29T09:51:38.929Z,5.30
2023-01-29T09:54:12.895Z,5.13
2023-01-29T09:56:42.582Z,5.29
2023-01-29T09:59:13.704Z,4.88
2023-01-29T10:01:45.115Z,4.98
2023-01-29T10:04:19.639Z,5.03
2023-01-29T10:06:58.639Z,4.95
2023-01-29T10:09:45.484Z,5.08
2023-01-29T10:12:18.059Z,4.98
2023-01-29T10:14:49.847Z,4.97
2023-01-29T10:17:24.861Z,4.74
2023-01-29T10:19:57.326Z,4.79
2023-01-29T10:22:47.928Z,4.70
2023-01-29T10:25:18.586Z,4.66
2023-01-29T10:27:49.817Z,4.78
2023-01-29T10:30:23.348Z,4.78
2023-01-29T10:32:52.880Z,4.89
2023-01-29T10:35:22.707Z,4.77
2023-01-29T10:37:53.906Z,4.69
2023-01-29T10:40:24.263Z,4.74
2023-01-29T10:42:56.214Z,4.69
2023-01-29T10:45:28.397Z,4.74
2023-01-29T10:48:04.475Z,4.76
2023-01-29T10:50:39.558Z,4.71
2023-01-29T10:53:21.380Z,4.70
2023-01-29T10:55:53.618Z,4.66
2023-01-29T10:58:26.036Z,4.75
2023-01-29T11:00:56.795Z,4.71
2023-01-29T11:03:28.957Z,4.87
2023-01-29T11:06:00.649Z,4.91
2023-01-29T11:08:30.915Z,5.01
2023-01-29T11:11:02.304Z,5.03
2023-01-29T11:13:33.169Z,4.99
2023-01-29T11:16:03.861Z,4.95
2023-01-29T11:18:48.230Z,4.99
2023-01-29T11:21:17.625Z,4.99
2023-01-29T11:23:47.563Z,5.17
2023-01-29T11:26:18.946Z,5.16
2023-01-29T11:28:48.909Z,5.17
2023-01-29T11:31:20.805Z,5.16
2023-01-29T11:33:50.434Z,5.09
2023-01-29T11:36:23.676Z,5.01
2023-01-29T11:39:06.753Z,5.04
2023-01-29T11:41:39.791Z,5.09
2023-01-29T11:44:16.687Z,5.09
2023-01-29T11:46:47.465Z,5.26
2023-01-29T11:49:29.408Z,5.28
2023-01-29T11:51:58.670Z,5.13
2023-01-29T11:54:29.169Z,5.21
2023-01-29T11:56:58.432Z,5.35
2023-01-29T11:59:30.743Z,5.32
2023-01-29T12:02:05.960Z,5.21
2023-01-29T12:04:35.519Z,5.31
2023-01-29T12:07:04.760Z,5.22
2023-01-29T12:09:34.358Z,5.14
2023-01-29T12:12:18.276Z,5.27
2023-01-29T12:14:47.822Z,5.36
2023-01-29T12:17:19.041Z,5.34
2023-01-29T12:19:49.577Z,5.25
2023-01-29T12:22:19.145Z,5.18
2023-01-29T12:24:50.890Z,5.21
2023-01-29T12:27:21.356Z,5.16
2023-01-29T12:29:51.528Z,5.20
2023-01-29T12:32:24.633Z,5.22
2023-01-29T12:34:55.542Z,5.11
2023-01-29T12:37:25.486Z,5.13
2023-01-29T12:39:55.076Z,5.25
2023-01-29T12:42:24.697Z,5.30
2023-01-29T12:44:54.702Z,5.19
2023-01-29T12:47:27.257Z,5.18
2023-01-29T12:49:57.611Z,5.29
2023-01-29T12:52:31.383Z,5.20
2023-01-29T12:55:01.830Z,5.30
2023-01-29T12:57:34.098Z,5.36
2023-01-29T13:00:06.159Z,5.46
2023-01-29T13:02:37.098Z,5.30
2023-01-29T13:05:07.364Z,5.35
2023-01-29T13:07:37.785Z,5.42
2023-01-29T13:10:09.880Z,5.13
2023-01-29T13:12:40.337Z,5.07
2023-01-29T13:15:14.911Z,5.07
2023-01-29T13:17:46.355Z,5.10
2023-01-29T13:20:18.900Z,5.12
2023-01-29T13:22:48.590Z,5.26
2023-01-29T13:25:18.823Z,5.11
2023-01-29T13:27:48.270Z,5.05
2023-01-29T13:30:28.137Z,5.04
2023-01-29T13:33:09.708Z,5.18
2023-01-29T13:35:40.808Z,5.15
2023-01-29T13:38:18.982Z,5.15
2023-01-29T13:40:50.200Z,5.00
2023-01-29T13:43:20.134Z,5.04
2023-01-29T13:45:49.670Z,5.13
2023-01-29T13:48:22.192Z,5.03
2023-01-29T13:50:51.726Z,5.08
2023-01-29T13:53:22.460Z,5.25
2023-01-29T13:55:52.028Z,5.13
2023-01-29T13:58:46.499Z,5.26
2023-01-29T14:01:16.069Z,5.24
2023-01-29T14:04:03.810Z,5.25
2023-01-29T14:06:38.376Z,5.14
2023-01-29T14:09:20.965Z,5.29
2023-01-29T14:11:50.519Z,5.33
2023-01-29T14:14:38.369Z,5.23
2023-01-29T14:17:07.971Z,5.45
2023-01-29T14:19:38.872Z,5.52
2023-01-29T14:22:08.454Z,5.60
2023-01-29T14:24:37.791Z,5.60
2023-01-29T14:27:07.343Z,5.45
2023-01-29T14:29:39.522Z,5.50
2023-01-29T14:32:11.770Z,5.63
2023-01-29T14:34:45.743Z,5.52
2023-01-29T14:37:21.280Z,5.53
2023-01-29T14:39:51.036Z,5.56
2023-01-29T14:42:23.225Z,5.65
2023-01-29T14:45:02.453Z,5.52
2023-01-29T14:47:50.411Z,5.35
2023-01-29T14:50:38.563Z,5.36
2023-01-29T14:53:12.316Z,5.38
2023-01-29T14:55:42.365Z,5.30
2023-01-29T14:58:13.106Z,5.42
2023-01-29T15:00:43.640Z,5.36
2023-01-29T15:03:19.027Z,5.43
2023-01-29T15:05:48.321Z,5.43
2023-01-29T15:08:20.029Z,5.34
2023-01-29T15:11:10.059Z,5.25
2023-01-29T15:13:41.176Z,5.39
2023-01-29T15:16:11.161Z,5.51
2023-01-29T15:18:41.135Z,5.56
2023-01-29T15:21:13.190Z,5.47
2023-01-29T15:23:44.714Z,5.57
2023-01-29T15:26:16.285Z,5.54
2023-01-29T15:28:54.794Z,5.60
2023-01-29T15:31:27.988Z,5.54
2023-01-29T15:33:57.793Z,5.56
2023-01-29T15:36:27.205Z,5.44
2023-01-29T15:39:11.642Z,5.41
2023-01-29T15:41:42.412Z,5.41
2023-01-29T15:44:13.621Z,5.35
2023-01-29T15:46:42.973Z,5.43
2023-01-29T15:49:13.131Z,5.45
2023-01-29T15:51:42.385Z,5.34
2023-01-29T15:54:14.605Z,5.36
2023-01-29T15:56:46.475Z,5.31
2023-01-29T15:59:18.105Z,5.39
2023-01-29T16:01:47.435Z,5.18
2023-01-29T16:04:18.603Z,5.19
2023-01-29T16:06:47.915Z,5.26
2023-01-29T16:09:18.208Z,5.22
2023-01-29T16:11:49.207Z,5.36
2023-01-29T16:14:20.651Z,5.30
2023-01-29T16:16:50.031Z,5.38
2023-01-29T16:19:23.405Z,5.42
2023-01-29T16:21:54.487Z,5.33
2023-01-29T16:24:25.122Z,5.28
2023-01-29T16:26:58.672Z,5.37
2023-01-29T16:29:31.468Z,5.36
2023-01-29T16:32:02.550Z,5.29
2023-01-29T16:34:33.179Z,5.32
2023-01-29T16:37:02.594Z,5.28
2023-01-29T16:39:33.934Z,5.33
2023-01-29T16:42:25.863Z,5.32
2023-01-29T16:44:59.352Z,5.25
2023-01-29T16:47:29.918Z,5.21
2023-01-29T16:50:00.798Z,5.26
2023-01-29T16:52:30.959Z,5.27
2023-01-29T16:55:01.431Z,5.18
2023-01-29T16:57:33.913Z,5.00
2023-01-29T17:00:04.643Z,5.10
2023-01-29T17:02:34.832Z,5.10
2023-01-29T17:05:05.409Z,4.97
2023-01-29T17:07:34.724Z,5.02
2023-01-29T17:10:05.404Z,4.96
2023-01-29T17:12:38.545Z,5.01
2023-01-29T17:15:29.335Z,5.15
2023-01-29T17:17:58.738Z,5.10
2023-01-29T17:20:28.421Z,5.15
2023-01-29T17:22:57.656Z,5.09
2023-01-29T17:25:27.277Z,5.08
2023-01-29T17:27:58.036Z,5.14
2023-01-29T17:30:28.679Z,5.13
2023-01-29T17:32:57.952Z,5.11
2023-01-29T17:35:27.647Z,5.18
2023-01-29T17:37:56.923Z,5.22
2023-01-29T17:40:29.719Z,5.14
2023-01-29T17:43:00.502Z,5.14
2023-01-29T17:45:30.308Z,5.18
2023-01-29T17:47:59.835Z,5.18
2023-01-29T17:50:29.980Z,5.13
2023-01-29T17:52:59.201Z,5.17
2023-01-29T17:55:28.769Z,5.14
2023-01-29T17:57:58.370Z,5.11
2023-01-29T18:00:29.375Z,5.15
2023-01-29T18:03:01.729Z,5.20
2023-01-29T18:05:31.454Z,5.01
2023-01-29T18:08:00.610Z,5.11
2023-01-29T18:10:30.383Z,5.11
2023-01-29T18:12:59.632Z,5.19
2023-01-29T18:15:30.702Z,5.08
2023-01-29T18:17:59.917Z,5.09
2023-01-29T18:20:30.331Z,5.13
2023-01-29T18:23:04.199Z,5.07
2023-01-29T18:25:33.837Z,5.04
2023-01-29T18:28:03.176Z,5.11
2023-01-29T18:30:34.367Z,5.09
2023-01-29T18:33:03.599Z,4.83
2023-01-29T18:35:33.128Z,5.00
2023-01-29T18:38:02.373Z,5.01
2023-01-29T18:40:32.212Z,5.06
2023-01-29T18:43:01.473Z,5.01
2023-01-29T18:45:31.390Z,5.00
2023-01-29T18:48:02.283Z,4.97
2023-01-29T18:50:35.579Z,4.91
2023-01-29T18:53:05.019Z,4.93
2023-01-29T18:55:34.621Z,4.79
2023-01-29T18:58:27.381Z,4.86
2023-01-29T19:00:53.756Z,4.85
2023-01-29T19:03:24.795Z,4.82
2023-01-29T19:06:00.806Z,4.84
2023-01-29T19:08:30.125Z,4.84
2023-01-29T19:11:02.429Z,4.90
2023-01-29T19:13:31.930Z,4.81
2023-01-29T19:16:01.584Z,4.83
2023-01-29T19:18:32.349Z,4.92
2023-01-29T19:21:02.004Z,4.89
2023-01-29T19:23:31.301Z,5.00
2023-01-29T19:26:01.005Z,4.92
2023-01-29T19:28:30.377Z,4.96
2023-01-29T19:31:00.171Z,4.90
2023-01-29T19:33:29.607Z,4.89
2023-01-29T19:36:00.967Z,4.97
2023-01-29T19:38:33.546Z,4.77
2023-01-29T19:41:04.914Z,4.94
2023-01-29T19:43:34.367Z,5.03
2023-01-29T19:46:04.043Z,4.89
2023-01-29T19:48:33.680Z,5.02
2023-01-29T19:51:07.056Z,5.07
2023-01-29T19:53:36.571Z,5.08
2023-01-29T19:56:06.870Z,5.14
2023-01-29T19:58:36.436Z,4.99
2023-01-29T20:01:06.800Z,4.99
2023-01-29T20:03:36.214Z,5.01
2023-01-29T20:06:07.808Z,4.89
2023-01-29T20:08:37.260Z,4.89
2023-01-29T20:11:09.786Z,4.94
2023-01-29T20:13:39.120Z,4.97
2023-01-29T20:16:09.070Z,4.98
2023-01-29T20:18:38.572Z,4.99
2023-01-29T20:21:10.698Z,4.82
2023-01-29T20:23:40.396Z,4.78
2023-01-29T20:26:10.442Z,4.86
2023-01-29T20:28:39.885Z,4.71
2023-01-29T20:31:09.878Z,4.67
2023-01-29T20:33:39.734Z,4.81
2023-01-29T20:36:11.863Z,4.92
2023-01-29T20:38:41.171Z,4.81
2023-01-29T20:41:11.233Z,4.80
2023-01-29T20:43:40.619Z,4.62
2023-01-29T20:46:10.557Z,4.73
2023-01-29T20:48:40.186Z,4.56
2023-01-29T20:51:13.242Z,4.56
2023-01-29T20:53:43.276Z,4.53
2023-01-29T20:56:13.136Z,4.60
2023-01-29T20:58:42.456Z,4.56
2023-01-29T21:01:12.216Z,4.58
2023-01-29T21:03:41.528Z,4.59
2023-01-29T21:06:12.981Z,4.61
2023-01-29T21:08:42.271Z,4.67
2023-01-29T21:11:11.993Z,4.45
2023-01-29T21:13:41.126Z,4.46
2023-01-29T21:16:11.475Z,4.47
2023-01-29T21:18:40.849Z,4.44
2023-01-29T21:21:10.962Z,4.54
2023-01-29T21:23:41.704Z,4.47
2023-01-29T21:26:11.326Z,4.37
2023-01-29T21:28:40.526Z,4.39
2023-01-29T21:31:10.737Z,4.47
2023-01-29T21:33:39.944Z,4.36
2023-01-29T21:36:10.341Z,4.44
2023-01-29T21:38:39.611Z,4.35
2023-01-29T21:41:14.644Z,4.39
2023-01-29T21:43:42.811Z,4.31
2023-01-29T21:46:12.758Z,4.24
2023-01-29T21:48:41.987Z,4.45
2023-01-29T21:51:11.562Z,4.53
2023-01-29T21:53:40.728Z,4.50
2023-01-29T21:56:11.719Z,4.57
2023-01-29T21:58:40.852Z,4.48
2023-01-29T22:01:10.538Z,4.50
2023-01-29T22:03:59.767Z,4.39
2023-01-29T22:06:29.804Z,4.43
2023-01-29T22:08:59.084Z,4.42
2023-01-29T22:11:30.496Z,4.60
2023-01-29T22:13:59.771Z,4.59
2023-01-29T22:16:30.037Z,4.46
2023-01-29T22:18:59.416Z,4.56
2023-01-29T22:21:28.989Z,4.54
2023-01-29T22:23:58.227Z,4.59
2023-01-29T22:26:27.873Z,4.47
2023-01-29T22:28:58.605Z,4.38
2023-01-29T22:31:28.208Z,4.47
2023-01-29T22:33:57.363Z,4.42
2023-01-29T22:36:26.942Z,4.34
2023-01-29T22:38:56.139Z,4.36
2023-01-29T22:41:25.668Z,4.37
2023-01-29T22:43:54.826Z,4.36
2023-01-29T22:46:25.953Z,4.44
2023-01-29T22:48:55.469Z,4.53
2023-01-29T22:51:25.074Z,4.44
2023-01-29T22:53:54.620Z,4.41
2023-01-29T22:56:25.848Z,4.47
2023-01-29T22:58:55.425Z,4.47
2023-01-29T23:01:27.170Z,4.59
2023-01-29T23:03:56.376Z,4.48
2023-01-29T23:06:26.068Z,4.38
2023-01-29T23:08:55.405Z,4.47
2023-01-29T23:11:24.962Z,4.44
2023-01-29T23:13:54.868Z,4.51
2023-01-29T23:16:28.057Z,4.51
2023-01-29T23:18:58.847Z,4.43
2023-01-29T23:21:29.086Z,4.43
2023-01-29T23:23:59.745Z,4.22
2023-01-29T23:26:46.805Z,4.16
2023-01-29T23:29:16.281Z,4.09
2023-01-29T23:31:45.981Z,4.11
2023-01-29T23:34:16.680Z,4.12
2023-01-29T23:36:46.237Z,4.09
2023-01-29T23:39:15.476Z,4.23
2023-01-29T23:41:45.053Z,4.07
2023-01-29T23:44:14.342Z,4.04
2023-01-29T23:46:44.156Z,4.09
2023-01-29T23:49:13.376Z,3.99
2023-01-29T23:51:45.810Z,3.94
2023-01-29T23:54:14.985Z,4.03
2023-01-29T23:56:44.625Z,3.95
2023-01-29T23:59:14.179Z,4.00
